createdAt,value
2022-10-01T00:11:19.274Z,967.3
2022-10-01T00:26:21.109Z,967.22
2022-10-01T00:41:22.931Z,967.29
2022-10-01T00:56:24.750Z,967.35
2022-10-01T01:11:26.595Z,967.5
2022-10-01T01:26:28.457Z,967.62
2022-10-01T01:41:30.335Z,967.49
2022-10-01T01:56:32.239Z,967.97
2022-10-01T02:11:34.313Z,968.2
2022-10-01T02:26:36.300Z,968.32
2022-10-01T02:41:38.148Z,968.43
2022-10-01T02:56:48.328Z,968.43
2022-10-01T03:11:50.560Z,968.56
2022-10-01T03:26:52.414Z,968.73
2022-10-01T03:41:54.261Z,968.79
2022-10-01T03:56:56.089Z,968.91
2022-10-01T04:11:57.912Z,969.11
2022-10-01T04:26:59.785Z,969.18
2022-10-01T04:42:01.618Z,969.19
2022-10-01T04:57:03.459Z,969.17
2022-10-01T05:12:05.297Z,969.08
2022-10-01T05:27:07.138Z,969.17
2022-10-01T05:42:08.995Z,969.2
2022-10-01T05:57:10.815Z,969.27
2022-10-01T06:12:15.404Z,969.3
2022-10-01T06:27:20.858Z,969.7
2022-10-01T06:42:22.685Z,969.74
2022-10-01T06:57:24.499Z,969.9
2022-10-01T07:12:26.347Z,970.04
2022-10-01T07:27:28.226Z,969.98
2022-10-01T07:42:30.057Z,970.2
2022-10-01T07:57:31.907Z,970.23
2022-10-01T08:12:33.776Z,970.26
2022-10-01T08:27:35.637Z,970.25
2022-10-01T08:42:37.424Z,970.53
2022-10-01T08:57:39.233Z,970.63
2022-10-01T09:12:41.077Z,970.72
2022-10-01T09:27:42.930Z,970.84
2022-10-01T09:42:44.753Z,971.02
2022-10-01T09:57:46.555Z,971.03
2022-10-01T10:12:48.380Z,971.1
2022-10-01T10:27:50.271Z,971
2022-10-01T10:42:52.150Z,971
2022-10-01T10:57:57.557Z,971.01
2022-10-01T11:12:59.877Z,971.17
2022-10-01T11:28:01.778Z,971.24
2022-10-01T11:43:03.645Z,971.27
2022-10-01T11:58:05.469Z,971.37
2022-10-01T12:13:07.297Z,971.51
2022-10-01T12:28:09.194Z,971.43
2022-10-01T12:43:11.057Z,971.42
2022-10-01T12:58:12.879Z,971.47
2022-10-01T13:13:14.730Z,971.57
2022-10-01T13:28:16.640Z,971.63
2022-10-01T13:43:18.513Z,971.7
2022-10-01T13:58:20.376Z,971.7
2022-10-01T14:13:22.208Z,971.67
2022-10-01T14:28:24.071Z,971.69
2022-10-01T14:43:25.958Z,971.64
2022-10-01T14:58:27.782Z,971.6
2022-10-01T15:13:29.623Z,971.5
2022-10-01T15:28:31.587Z,971.52
2022-10-01T15:43:33.561Z,971.56
2022-10-01T15:58:35.424Z,971.45
2022-10-01T16:13:37.246Z,971.38
2022-10-01T16:28:39.106Z,971.3
2022-10-01T16:43:40.965Z,971.09
2022-10-01T16:58:42.794Z,971.02
2022-10-01T17:13:44.624Z,970.86
2022-10-01T17:28:46.479Z,970.66
2022-10-01T17:43:48.303Z,970.4
2022-10-01T17:58:50.162Z,970.22
2022-10-01T18:13:52.012Z,969.98
2022-10-01T18:28:53.922Z,969.77
2022-10-01T18:43:55.706Z,969.43
2022-10-01T18:58:57.551Z,968.99
2022-10-01T19:13:59.407Z,968.65
2022-10-01T19:29:01.228Z,968.39
2022-10-01T19:44:03.080Z,967.98
2022-10-01T19:59:04.927Z,967.69
2022-10-01T20:14:06.748Z,967.47
2022-10-01T20:29:08.628Z,967.18
2022-10-01T20:44:10.512Z,966.62
2022-10-01T20:59:12.371Z,966.25
2022-10-01T21:14:14.209Z,966.02
2022-10-01T21:29:16.031Z,965.74
2022-10-01T21:44:17.843Z,965.56
2022-10-01T21:59:19.685Z,965.39
2022-10-01T22:14:21.539Z,965.22
2022-10-01T22:29:23.358Z,965
2022-10-01T22:44:25.186Z,964.84
2022-10-01T22:59:27.034Z,964.72
2022-10-01T23:14:28.880Z,964.56
2022-10-01T23:29:30.650Z,964.42
2022-10-01T23:44:32.495Z,964.34
2022-10-01T23:59:34.318Z,964.15
